createdAt,value
2022-09-13T00:00:05.494Z,53.19
2022-09-13T00:01:37.559Z,53.58
2022-09-13T00:03:10.051Z,53.47
2022-09-13T00:04:41.578Z,53.17
2022-09-13T00:06:13.892Z,53.25
2022-09-13T00:07:45.537Z,53.17
2022-09-13T00:09:17.124Z,53.06
2022-09-13T00:10:48.788Z,52.90
2022-09-13T00:12:20.810Z,53.10
2022-09-13T00:13:52.602Z,53.47
2022-09-13T00:15:24.162Z,53.25
2022-09-13T00:16:55.718Z,53.54
2022-09-13T00:18:27.481Z,53.74
2022-09-13T00:19:59.577Z,53.79
2022-09-13T00:21:33.207Z,53.35
2022-09-13T00:23:04.720Z,53.35
2022-09-13T00:24:37.448Z,53.56
2022-09-13T00:26:10.494Z,53.73
2022-09-13T00:27:42.125Z,53.92
2022-09-13T00:29:13.711Z,54.14
2022-09-13T00:30:45.264Z,53.80
2022-09-13T00:32:17.190Z,53.94
2022-09-13T00:33:48.734Z,54.20
2022-09-13T00:35:20.264Z,53.76
2022-09-13T00:36:51.830Z,54.09
2022-09-13T00:38:23.537Z,53.82
2022-09-13T00:39:55.112Z,53.93
2022-09-13T00:41:26.743Z,53.82
2022-09-13T00:42:58.910Z,53.59
2022-09-13T00:44:48.172Z,53.84
2022-09-13T00:46:22.703Z,54.11
2022-09-13T00:48:05.365Z,53.85
2022-09-13T00:49:37.113Z,54.19
2022-09-13T00:51:08.717Z,54.53
2022-09-13T00:52:42.740Z,54.50
2022-09-13T00:54:16.762Z,53.98
2022-09-13T00:55:55.906Z,54.03
2022-09-13T00:57:27.502Z,54.39
2022-09-13T00:59:02.874Z,54.55
2022-09-13T01:00:34.476Z,54.20
2022-09-13T01:02:06.396Z,54.01
2022-09-13T01:03:38.230Z,54.39
2022-09-13T01:05:09.796Z,54.15
2022-09-13T01:06:41.581Z,54.15
2022-09-13T01:08:16.241Z,54.56
2022-09-13T01:09:48.627Z,54.11
2022-09-13T01:11:41.483Z,54.04
2022-09-13T01:13:15.147Z,54.24
2022-09-13T01:14:46.747Z,54.14
2022-09-13T01:16:18.398Z,53.98
2022-09-13T01:17:50.571Z,54.12
2022-09-13T01:19:22.309Z,54.39
2022-09-13T01:21:12.917Z,54.36
2022-09-13T01:22:45.396Z,54.26
2022-09-13T01:24:31.691Z,54.39
2022-09-13T01:26:32.789Z,54.67
2022-09-13T01:28:16.878Z,54.55
2022-09-13T01:30:07.139Z,54.53
2022-09-13T01:31:41.114Z,54.58
2022-09-13T01:33:21.637Z,54.82
2022-09-13T01:34:53.302Z,54.85
2022-09-13T01:36:36.740Z,54.78
2022-09-13T01:38:08.221Z,54.93
2022-09-13T01:39:55.865Z,54.90
2022-09-13T01:41:45.784Z,54.66
2022-09-13T01:43:24.286Z,54.75
2022-09-13T01:45:18.967Z,54.70
2022-09-13T01:46:59.828Z,55.24
2022-09-13T01:48:34.603Z,55.37
2022-09-13T01:50:06.268Z,55.33
2022-09-13T01:51:58.077Z,55.28
2022-09-13T01:53:29.640Z,55.33
2022-09-13T01:55:10.351Z,55.71
2022-09-13T01:56:44.962Z,55.35
2022-09-13T01:58:19.957Z,55.20
2022-09-13T02:00:01.528Z,55.15
2022-09-13T02:01:36.717Z,55.57
2022-09-13T02:03:29.834Z,55.13
2022-09-13T02:05:10.171Z,55.53
2022-09-13T02:06:43.073Z,55.07
2022-09-13T02:08:33.551Z,55.48
2022-09-13T02:10:06.877Z,55.40
2022-09-13T02:11:38.854Z,55.59
2022-09-13T02:13:11.690Z,55.71
2022-09-13T02:14:43.688Z,55.70
2022-09-13T02:16:24.370Z,55.40
2022-09-13T02:18:07.483Z,55.44
2022-09-13T02:19:43.818Z,55.34
2022-09-13T02:21:20.447Z,55.70
2022-09-13T02:22:53.300Z,55.65
2022-09-13T02:24:25.711Z,56.05
2022-09-13T02:25:57.743Z,55.94
2022-09-13T02:27:29.965Z,55.58
2022-09-13T02:29:02.633Z,55.57
2022-09-13T02:30:34.681Z,55.79
2022-09-13T02:32:07.657Z,55.87
2022-09-13T02:33:42.525Z,55.87
2022-09-13T02:35:19.675Z,55.83
2022-09-13T02:36:51.224Z,55.93
2022-09-13T02:38:32.474Z,56.11
2022-09-13T04:33:05.790Z,57.23
2022-09-13T04:34:37.699Z,57.53
2022-09-13T04:41:10.970Z,57.57
2022-09-13T04:43:10.583Z,57.69
2022-09-13T04:44:42.412Z,57.59
2022-09-13T04:46:14.197Z,57.34
2022-09-13T04:47:50.853Z,57.36
2022-09-13T04:49:22.388Z,57.51
2022-09-13T04:50:53.921Z,57.34
2022-09-13T04:52:25.579Z,57.34
2022-09-13T04:53:57.247Z,57.48
2022-09-13T04:55:29.010Z,57.25
2022-09-13T04:57:00.624Z,57.31
2022-09-13T04:58:32.521Z,57.47
2022-09-13T05:00:04.528Z,57.42
2022-09-13T05:01:36.455Z,57.68
2022-09-13T05:03:08.132Z,57.86
2022-09-13T05:04:39.857Z,57.79
2022-09-13T05:06:12.256Z,57.74
2022-09-13T05:07:44.168Z,57.99
2022-09-13T05:09:16.099Z,57.69
2022-09-13T05:10:47.694Z,58.08
2022-09-13T05:12:19.350Z,58.16
2022-09-13T05:13:55.365Z,57.92
2022-09-13T05:15:26.955Z,58.37
2022-09-13T05:16:58.572Z,57.98
2022-09-13T05:18:30.617Z,58.07
2022-09-13T05:20:02.589Z,57.81
2022-09-13T05:21:34.216Z,57.93
2022-09-13T05:23:05.901Z,57.90
2022-09-13T05:24:37.608Z,57.93
2022-09-13T05:26:09.086Z,58.00
2022-09-13T05:27:40.829Z,57.85
2022-09-13T05:29:12.533Z,57.50
2022-09-13T05:30:44.277Z,57.60
2022-09-13T05:32:15.978Z,57.61
2022-09-13T05:33:48.346Z,57.58
2022-09-13T05:35:20.365Z,57.32
2022-09-13T05:36:54.433Z,57.39
2022-09-13T05:38:26.275Z,57.17
2022-09-13T05:40:11.228Z,56.95
2022-09-13T05:41:44.031Z,57.29
2022-09-13T05:43:15.617Z,57.74
2022-09-13T05:44:47.875Z,57.50
2022-09-13T05:46:19.992Z,58.12
2022-09-13T05:47:51.909Z,58.01
2022-09-13T05:49:23.585Z,57.50
2022-09-13T05:50:58.286Z,57.32
2022-09-13T05:52:30.278Z,57.50
2022-09-13T05:54:02.095Z,57.43
2022-09-13T05:55:34.456Z,57.20
2022-09-13T05:57:06.029Z,57.45
2022-09-13T05:58:40.862Z,57.04
2022-09-13T06:00:12.707Z,57.34
2022-09-13T06:01:45.350Z,57.12
2022-09-13T06:03:17.130Z,57.18
2022-09-13T06:04:48.877Z,57.06
2022-09-13T06:06:20.681Z,57.10
2022-09-13T06:07:52.172Z,57.44
2022-09-13T06:09:23.821Z,57.39
2022-09-13T06:10:56.183Z,57.47
2022-09-13T06:12:27.806Z,57.15
2022-09-13T06:13:59.351Z,56.99
2022-09-13T06:15:30.962Z,57.42
2022-09-13T06:17:02.497Z,57.30
2022-09-13T06:18:34.485Z,57.03
2022-09-13T06:20:06.615Z,57.00
2022-09-13T06:21:38.119Z,56.76
2022-09-13T06:23:09.915Z,56.75
2022-09-13T06:24:41.575Z,56.68
2022-09-13T06:26:13.916Z,56.56
2022-09-13T06:27:45.646Z,56.27
2022-09-13T06:29:17.295Z,56.09
2022-09-13T06:30:48.909Z,56.18
2022-09-13T06:32:20.532Z,56.15
2022-09-13T06:33:57.585Z,56.06
2022-09-13T06:35:29.035Z,55.71
2022-09-13T06:37:01.229Z,55.82
2022-09-13T06:38:32.765Z,55.86
2022-09-13T06:40:05.705Z,55.69
2022-09-13T06:41:38.064Z,55.59
2022-09-13T06:43:12.696Z,55.96
2022-09-13T06:44:46.084Z,55.49
2022-09-13T06:46:21.534Z,55.60
2022-09-13T06:47:56.207Z,55.43
2022-09-13T06:49:29.489Z,55.50
2022-09-13T06:51:01.605Z,55.71
2022-09-13T06:52:33.110Z,55.87
2022-09-13T06:54:04.661Z,55.77
2022-09-13T06:55:36.205Z,55.83
2022-09-13T06:57:07.816Z,55.69
2022-09-13T06:58:39.500Z,55.50
2022-09-13T07:00:11.456Z,55.27
2022-09-13T07:01:46.106Z,55.20
2022-09-13T07:03:17.685Z,55.05
2022-09-13T07:04:49.277Z,55.07
2022-09-13T07:06:22.720Z,55.37
2022-09-13T07:07:54.529Z,55.50
2022-09-13T07:09:26.634Z,55.67
2022-09-13T07:10:58.267Z,55.58
2022-09-13T07:12:29.850Z,55.41
2022-09-13T07:14:01.460Z,55.24
2022-09-13T07:15:33.157Z,55.08
2022-09-13T07:17:05.236Z,55.11
2022-09-13T07:18:37.341Z,55.00
2022-09-13T07:20:09.114Z,55.00
2022-09-13T07:21:40.862Z,54.70
2022-09-13T07:23:15.256Z,54.51
2022-09-13T07:24:47.128Z,54.41
2022-09-13T07:26:18.788Z,54.17
2022-09-13T07:27:50.268Z,54.14
2022-09-13T07:29:23.802Z,54.12
2022-09-13T07:30:56.040Z,54.27
2022-09-13T07:32:27.766Z,54.15
2022-09-13T07:34:00.516Z,54.11
2022-09-13T07:35:32.329Z,54.05
2022-09-13T07:37:03.991Z,54.11
2022-09-13T07:38:36.510Z,53.98
2022-09-13T07:40:08.522Z,54.12
2022-09-13T07:41:40.421Z,54.38
2022-09-13T07:43:12.012Z,54.74
2022-09-13T07:44:43.597Z,54.62
2022-09-13T07:46:15.945Z,54.76
2022-09-13T07:47:47.685Z,54.41
2022-09-13T07:49:19.399Z,54.43
2022-09-13T07:50:57.609Z,54.58
2022-09-13T07:52:29.344Z,54.27
2022-09-13T07:54:01.792Z,54.08
2022-09-13T07:55:33.261Z,54.00
2022-09-13T07:57:04.979Z,54.14
2022-09-13T07:58:37.406Z,54.19
2022-09-13T08:00:09.640Z,54.03
2022-09-13T08:01:42.081Z,53.84
2022-09-13T08:03:13.742Z,53.67
2022-09-13T08:04:45.198Z,53.49
2022-09-13T08:06:16.910Z,53.22
2022-09-13T08:07:48.717Z,53.16
2022-09-13T08:09:20.311Z,53.20
2022-09-13T08:10:51.964Z,53.00
2022-09-13T08:12:23.596Z,52.90
2022-09-13T08:13:55.195Z,52.83
2022-09-13T08:15:27.035Z,52.95
2022-09-13T08:16:58.667Z,52.96
2022-09-13T08:18:30.393Z,52.77
2022-09-13T08:20:02.021Z,52.57
2022-09-13T08:21:34.647Z,52.67
2022-09-13T08:23:06.361Z,52.58
2022-09-13T08:24:37.877Z,52.51
2022-09-13T08:26:09.670Z,52.31
2022-09-13T08:27:41.229Z,52.24
2022-09-13T08:29:12.924Z,52.10
2022-09-13T08:30:44.764Z,52.19
2022-09-13T08:32:16.313Z,51.96
2022-09-13T08:33:48.545Z,51.62
2022-09-13T08:35:20.323Z,51.75
2022-09-13T08:36:52.025Z,51.54
2022-09-13T08:38:23.544Z,51.33
2022-09-13T08:39:55.709Z,51.10
2022-09-13T08:41:29.878Z,50.83
2022-09-13T08:43:06.840Z,50.49
2022-09-13T08:44:40.810Z,50.26
2022-09-13T08:46:32.691Z,50.33
2022-09-13T08:48:12.220Z,50.03
2022-09-13T08:49:45.119Z,50.15
2022-09-13T08:51:29.214Z,49.99
2022-09-13T08:53:04.376Z,49.94
2022-09-13T08:54:35.889Z,49.82
2022-09-13T08:56:14.364Z,49.66
2022-09-13T08:57:47.752Z,49.58
2022-09-13T08:59:31.663Z,49.47
2022-09-13T09:01:06.525Z,49.17
2022-09-13T09:02:58.655Z,48.93
2022-09-13T09:04:39.522Z,48.86
2022-09-13T09:06:14.835Z,48.55
2022-09-13T09:07:57.700Z,48.39
2022-09-13T09:09:29.832Z,48.25
2022-09-13T09:11:08.022Z,48.14
2022-09-13T09:12:41.280Z,47.76
2022-09-13T09:14:25.398Z,47.68
2022-09-13T09:15:59.069Z,47.35
2022-09-13T09:17:32.369Z,47.37
2022-09-13T09:19:15.579Z,47.37
2022-09-13T09:20:50.801Z,47.07
2022-09-13T09:22:22.975Z,46.69
2022-09-13T09:23:55.001Z,46.79
2022-09-13T09:25:26.910Z,46.95
2022-09-13T09:26:58.715Z,46.69
2022-09-13T09:28:31.863Z,46.13
2022-09-13T09:30:04.004Z,46.09
2022-09-13T09:31:44.829Z,45.89
2022-09-13T09:33:23.106Z,45.66
2022-09-13T09:35:00.968Z,45.69
2022-09-13T09:36:46.350Z,45.49
2022-09-13T09:38:36.386Z,45.53
2022-09-13T09:40:10.499Z,45.16
2022-09-13T09:41:42.633Z,45.13
2022-09-13T09:43:33.991Z,44.97
2022-09-13T09:45:06.570Z,45.10
2022-09-13T09:46:39.309Z,44.96
2022-09-13T09:48:13.257Z,44.93
2022-09-13T09:50:10.369Z,44.74
2022-09-13T09:51:41.922Z,44.65
2022-09-13T09:53:27.328Z,44.47
2022-09-13T09:55:00.856Z,44.00
2022-09-13T09:56:33.531Z,43.77
2022-09-13T09:58:06.801Z,44.21
2022-09-13T09:59:38.947Z,44.24
2022-09-13T10:01:17.356Z,44.07
2022-09-13T10:02:49.727Z,44.00
2022-09-13T10:04:23.524Z,43.83
2022-09-13T10:06:07.937Z,43.63
2022-09-13T10:07:40.391Z,43.54
2022-09-13T10:09:16.127Z,43.40
2022-09-13T10:10:54.257Z,43.39
2022-09-13T10:12:27.375Z,43.33
2022-09-13T10:13:59.456Z,42.88
2022-09-13T10:15:34.365Z,43.11
2022-09-13T10:17:21.543Z,42.82
2022-09-13T10:18:53.562Z,42.55
2022-09-13T10:20:26.914Z,42.19
2022-09-13T10:22:11.619Z,41.90
2022-09-13T10:23:43.281Z,41.80
2022-09-13T10:25:15.105Z,41.85
2022-09-13T10:26:46.814Z,41.68
2022-09-13T10:28:18.720Z,41.92
2022-09-13T10:29:50.866Z,41.57
2022-09-13T10:31:22.532Z,41.42
2022-09-13T10:32:57.013Z,40.99
2022-09-13T10:34:29.874Z,40.74
2022-09-13T10:36:25.021Z,40.77
2022-09-13T10:38:17.019Z,40.44
2022-09-13T10:40:14.460Z,40.31
2022-09-13T10:41:54.091Z,40.65
2022-09-13T10:43:27.857Z,40.27
2022-09-13T10:45:00.388Z,40.04
2022-09-13T10:46:34.443Z,39.97
2022-09-13T10:48:09.626Z,40.09
2022-09-13T10:49:44.823Z,40.30
2022-09-13T10:51:37.304Z,40.02
2022-09-13T10:53:26.922Z,39.80
2022-09-13T10:55:17.588Z,39.76
2022-09-13T10:56:49.442Z,39.79
2022-09-13T10:58:21.624Z,39.89
2022-09-13T10:59:54.942Z,39.77
2022-09-13T11:01:29.298Z,39.53
2022-09-13T11:03:07.092Z,39.62
2022-09-13T11:04:39.138Z,39.59
2022-09-13T11:06:26.521Z,39.33
2022-09-13T11:07:58.060Z,38.84
2022-09-13T11:09:34.207Z,38.69
2022-09-13T11:11:24.344Z,38.45
2022-09-13T11:12:55.907Z,38.66
2022-09-13T11:14:43.089Z,38.73
2022-09-13T11:16:35.952Z,38.59
2022-09-13T11:18:20.597Z,38.58
2022-09-13T11:19:58.049Z,38.44
2022-09-13T11:21:39.387Z,38.08
2022-09-13T11:23:14.381Z,38.19
2022-09-13T11:24:54.541Z,38.26
2022-09-13T11:26:26.494Z,38.15
2022-09-13T11:28:05.989Z,38.08
2022-09-13T11:29:56.611Z,38.09
2022-09-13T11:31:54.815Z,37.74
2022-09-13T11:33:28.744Z,37.56
2022-09-13T11:35:00.278Z,37.46
2022-09-13T11:36:37.960Z,37.31
2022-09-13T11:38:28.911Z,37.41
2022-09-13T11:40:26.849Z,37.15
2022-09-13T11:42:01.894Z,37.18
2022-09-13T11:43:52.363Z,37.20
2022-09-13T11:45:37.903Z,37.04
2022-09-13T11:47:12.740Z,37.25
2022-09-13T11:48:44.365Z,37.13
2022-09-13T11:50:20.762Z,36.72
2022-09-13T11:52:13.424Z,36.77
2022-09-13T11:54:03.659Z,36.50
2022-09-13T11:55:37.115Z,36.32
2022-09-13T11:57:11.013Z,36.31
2022-09-13T11:58:45.212Z,36.23
2022-09-13T12:00:24.443Z,35.99
2022-09-13T12:01:58.018Z,35.96
2022-09-13T12:03:49.551Z,36.11
2022-09-13T12:05:24.067Z,35.91
2022-09-13T12:06:57.833Z,35.90
2022-09-13T12:08:33.159Z,35.98
2022-09-13T12:10:22.528Z,35.91
2022-09-13T12:11:59.071Z,35.65
2022-09-13T12:13:31.451Z,35.47
2022-09-13T12:15:05.184Z,35.54
2022-09-13T12:16:41.570Z,35.43
2022-09-13T12:18:19.887Z,35.61
2022-09-13T12:19:54.963Z,35.46
2022-09-13T12:21:28.194Z,35.59
2022-09-13T12:23:01.378Z,35.45
2022-09-13T12:24:36.750Z,35.50
2022-09-13T12:26:23.116Z,35.37
2022-09-13T12:27:57.387Z,35.19
2022-09-13T12:29:38.557Z,34.98
2022-09-13T12:31:20.479Z,35.20
2022-09-13T12:32:58.035Z,35.02
2022-09-13T12:34:35.887Z,34.90
2022-09-13T12:36:22.746Z,35.03
2022-09-13T12:38:21.055Z,34.94
2022-09-13T12:39:54.145Z,34.93
2022-09-13T12:41:44.580Z,34.85
2022-09-13T12:43:25.100Z,35.19
2022-09-13T12:45:03.986Z,34.88
2022-09-13T12:46:35.976Z,34.65
2022-09-13T12:48:19.926Z,34.67
2022-09-13T12:49:51.996Z,34.57
2022-09-13T12:51:59.869Z,34.25
2022-09-13T12:53:43.932Z,34.16
2022-09-13T12:55:45.796Z,33.86
2022-09-13T12:57:24.140Z,33.96
2022-09-13T12:59:07.224Z,34.14
2022-09-13T13:00:40.385Z,34.08
2022-09-13T13:02:31.133Z,34.24
2022-09-13T13:04:05.883Z,34.24
2022-09-13T13:05:44.088Z,34.08
2022-09-13T13:07:19.572Z,34.01
2022-09-13T13:08:51.971Z,34.02
2022-09-13T13:10:28.134Z,34.12
2022-09-13T13:12:00.009Z,34.00
2022-09-13T13:13:38.623Z,34.01
2022-09-13T13:15:16.173Z,34.36
2022-09-13T13:16:50.091Z,34.45
2022-09-13T13:18:22.647Z,34.18
2022-09-13T13:19:54.262Z,34.15
2022-09-13T13:21:28.878Z,34.07
2022-09-13T13:23:04.621Z,33.70
2022-09-13T13:24:39.821Z,33.63
2022-09-13T13:26:26.792Z,33.42
2022-09-13T13:27:58.945Z,33.32
2022-09-13T13:29:31.073Z,33.45
2022-09-13T13:31:02.734Z,33.40
2022-09-13T13:32:34.388Z,33.18
2022-09-13T13:34:15.490Z,33.28
2022-09-13T13:35:48.115Z,33.18
2022-09-13T13:37:21.216Z,33.57
2022-09-13T13:38:53.882Z,33.50
2022-09-13T13:40:26.987Z,33.26
2022-09-13T13:42:19.084Z,33.17
2022-09-13T13:43:50.902Z,33.05
2022-09-13T13:45:25.194Z,33.15
2022-09-13T13:47:08.590Z,33.22
2022-09-13T13:48:41.115Z,33.08
2022-09-13T13:50:16.710Z,32.82
2022-09-13T13:51:48.950Z,33.13
2022-09-13T13:53:22.654Z,33.06
2022-09-13T13:54:54.629Z,32.91
2022-09-13T13:56:33.941Z,32.92
2022-09-13T13:58:26.967Z,32.50
2022-09-13T14:00:17.473Z,32.73
2022-09-13T14:01:50.553Z,32.97
2022-09-13T14:03:35.840Z,32.86
2022-09-13T14:05:14.433Z,32.59
2022-09-13T14:06:49.368Z,32.84
2022-09-13T14:08:25.100Z,32.68
2022-09-13T14:10:00.040Z,32.50
2022-09-13T14:11:44.225Z,32.84
2022-09-13T14:13:25.255Z,32.63
2022-09-13T14:15:05.394Z,32.52
2022-09-13T14:16:52.460Z,32.71
2022-09-13T14:18:31.268Z,32.32
2022-09-13T14:20:10.674Z,32.17
2022-09-13T14:21:44.554Z,32.25
2022-09-13T14:23:19.181Z,32.16
2022-09-13T14:24:52.027Z,32.19
2022-09-13T14:26:23.875Z,32.24
2022-09-13T14:27:57.122Z,32.47
2022-09-13T14:29:29.255Z,32.52
2022-09-13T14:31:01.218Z,32.31
2022-09-13T14:32:41.993Z,32.12
2022-09-13T14:34:25.517Z,31.86
2022-09-13T14:35:58.350Z,32.21
2022-09-13T14:37:29.989Z,32.15
2022-09-13T14:39:03.807Z,32.09
2022-09-13T14:40:38.575Z,32.20
2022-09-13T14:42:14.479Z,32.12
2022-09-13T14:43:46.514Z,32.14
2022-09-13T14:45:26.279Z,31.96
2022-09-13T14:47:20.859Z,32.09
2022-09-13T14:48:57.584Z,32.13
2022-09-13T14:50:30.764Z,32.02
2022-09-13T14:52:08.815Z,32.01
2022-09-13T14:53:42.122Z,31.68
2022-09-13T14:55:14.606Z,32.13
2022-09-13T14:56:47.430Z,31.80
2022-09-13T14:58:29.845Z,31.74
2022-09-13T15:00:08.098Z,31.99
2022-09-13T15:01:40.387Z,32.05
2022-09-13T15:03:13.015Z,31.75
2022-09-13T15:04:48.195Z,31.86
2022-09-13T15:06:31.016Z,32.12
2022-09-13T15:08:25.454Z,31.92
2022-09-13T15:09:58.728Z,31.75
2022-09-13T15:11:34.619Z,31.80
2022-09-13T15:13:07.147Z,32.07
2022-09-13T15:14:39.142Z,31.72
2022-09-13T15:16:27.796Z,32.20
2022-09-13T15:18:00.380Z,32.31
2022-09-13T15:19:44.226Z,32.10
2022-09-13T15:21:18.473Z,32.35
2022-09-13T15:22:53.898Z,32.34
2022-09-13T15:24:26.822Z,32.37
2022-09-13T15:26:01.311Z,32.13
2022-09-13T15:27:45.528Z,32.25
2022-09-13T15:29:18.402Z,32.49
2022-09-13T15:30:50.027Z,32.23
2022-09-13T15:32:29.712Z,32.64
2022-09-13T15:34:20.497Z,32.30
2022-09-13T15:35:53.799Z,32.23
2022-09-13T15:37:29.194Z,32.30
2022-09-13T15:39:11.015Z,32.50
2022-09-13T15:40:44.152Z,32.36
2022-09-13T15:42:17.789Z,32.38
2022-09-13T15:43:49.515Z,32.15
2022-09-13T15:45:22.686Z,32.45
2022-09-13T15:46:56.671Z,32.06
2022-09-13T15:48:32.611Z,31.90
2022-09-13T15:50:06.163Z,32.10
2022-09-13T15:51:39.225Z,32.21
2022-09-13T15:53:10.845Z,32.11
2022-09-13T15:54:42.964Z,32.50
2022-09-13T15:56:17.853Z,32.10
2022-09-13T15:57:50.234Z,32.27
2022-09-13T15:59:22.329Z,32.50
2022-09-13T16:00:54.637Z,32.20
2022-09-13T16:02:30.218Z,32.47
2022-09-13T16:04:04.184Z,32.24
2022-09-13T16:05:37.373Z,32.68
2022-09-13T16:07:11.091Z,32.66
2022-09-13T16:08:42.991Z,32.45
2022-09-13T16:10:18.989Z,32.57
2022-09-13T16:11:50.969Z,32.46
2022-09-13T16:13:23.039Z,32.33
2022-09-13T16:14:54.961Z,32.51
2022-09-13T16:16:26.610Z,32.48
2022-09-13T16:17:58.171Z,32.86
2022-09-13T16:19:30.073Z,32.90
2022-09-13T16:21:02.660Z,32.70
2022-09-13T16:22:34.376Z,32.97
2022-09-13T16:24:05.937Z,33.01
2022-09-13T16:25:38.572Z,32.70
2022-09-13T16:27:11.177Z,32.88
2022-09-13T16:28:43.034Z,32.89
2022-09-13T16:30:16.367Z,33.04
2022-09-13T16:31:50.208Z,33.15
2022-09-13T16:33:21.917Z,32.92
2022-09-13T16:34:53.661Z,33.19
2022-09-13T16:36:27.764Z,33.22
2022-09-13T16:37:59.537Z,33.31
2022-09-13T16:39:31.843Z,33.33
2022-09-13T16:41:06.822Z,33.36
2022-09-13T16:42:39.293Z,33.48
2022-09-13T16:44:10.928Z,33.51
2022-09-13T16:45:43.520Z,33.60
2022-09-13T16:47:15.177Z,33.74
2022-09-13T16:48:46.868Z,33.75
2022-09-13T16:50:19.984Z,33.83
2022-09-13T16:51:51.688Z,33.95
2022-09-13T16:53:23.242Z,34.00
2022-09-13T16:54:55.938Z,34.18
2022-09-13T16:56:27.569Z,34.24
2022-09-13T16:57:59.665Z,34.17
2022-09-13T16:59:31.746Z,34.51
2022-09-13T17:01:06.898Z,34.53
2022-09-13T17:02:38.998Z,34.63
2022-09-13T17:04:11.760Z,34.76
2022-09-13T17:05:43.578Z,34.61
2022-09-13T17:07:15.343Z,34.79
2022-09-13T17:08:54.218Z,34.65
2022-09-13T17:10:25.786Z,34.80
2022-09-13T17:11:57.482Z,34.84
2022-09-13T17:13:29.015Z,34.89
2022-09-13T17:15:01.049Z,34.89
2022-09-13T17:16:37.608Z,35.03
2022-09-13T17:18:09.198Z,35.07
2022-09-13T17:19:40.827Z,35.29
2022-09-13T17:21:12.803Z,35.20
2022-09-13T17:22:44.373Z,35.25
2022-09-13T17:24:15.936Z,35.43
2022-09-13T17:25:48.289Z,35.49
2022-09-13T17:27:19.779Z,35.40
2022-09-13T17:28:52.712Z,35.47
2022-09-13T17:30:24.170Z,35.74
2022-09-13T17:31:55.818Z,35.74
2022-09-13T17:33:27.467Z,35.51
2022-09-13T17:34:59.415Z,35.83
2022-09-13T17:36:31.276Z,35.88
2022-09-13T17:38:03.287Z,35.94
2022-09-13T17:39:35.075Z,35.82
2022-09-13T17:41:09.214Z,35.78
2022-09-13T17:42:41.146Z,35.79
2022-09-13T17:44:12.677Z,35.92
2022-09-13T17:45:44.251Z,36.06
2022-09-13T17:47:16.109Z,35.98
2022-09-13T17:48:55.701Z,36.16
2022-09-13T17:50:27.236Z,36.30
2022-09-13T17:51:58.843Z,36.32
2022-09-13T17:53:30.523Z,36.39
2022-09-13T17:55:02.403Z,36.28
2022-09-13T17:56:38.220Z,36.36
2022-09-13T17:58:09.983Z,36.54
2022-09-13T17:59:41.606Z,36.51
2022-09-13T18:01:13.849Z,36.56
2022-09-13T18:02:51.083Z,36.59
2022-09-13T18:04:23.382Z,36.88
2022-09-13T18:05:56.255Z,36.86
2022-09-13T18:07:28.080Z,36.76
2022-09-13T18:09:00.046Z,36.76
2022-09-13T18:10:58.096Z,37.07
2022-09-13T18:12:23.219Z,37.07
2022-09-13T18:13:54.935Z,37.11
2022-09-13T18:15:26.441Z,37.07
2022-09-13T18:16:58.296Z,37.17
2022-09-13T18:18:30.452Z,37.06
2022-09-13T18:20:02.676Z,37.06
2022-09-13T18:21:34.254Z,37.11
2022-09-13T18:23:06.494Z,37.02
2022-09-13T18:24:38.070Z,37.11
2022-09-13T18:26:11.250Z,37.25
2022-09-13T18:27:42.870Z,37.28
2022-09-13T18:29:14.652Z,37.43
2022-09-13T18:30:51.676Z,37.64
2022-09-13T18:32:23.239Z,37.83
2022-09-13T18:33:56.765Z,38.10
2022-09-13T18:35:28.294Z,38.14
2022-09-13T18:36:59.957Z,38.23
2022-09-13T18:38:32.399Z,38.48
2022-09-13T18:40:06.257Z,38.53
2022-09-13T18:41:40.630Z,38.48
2022-09-13T18:43:12.380Z,38.53
2022-09-13T18:44:43.937Z,38.67
2022-09-13T18:46:17.520Z,38.86
2022-09-13T18:47:50.068Z,38.76
2022-09-13T18:49:21.919Z,38.76
2022-09-13T18:50:53.515Z,38.88
2022-09-13T18:52:26.072Z,39.05
2022-09-13T18:53:58.483Z,39.12
2022-09-13T18:55:31.390Z,39.35
2022-09-13T18:57:03.048Z,39.38
2022-09-13T18:58:35.281Z,39.61
2022-09-13T19:00:07.645Z,39.55
2022-09-13T19:01:40.206Z,39.52
2022-09-13T19:03:12.921Z,39.58
2022-09-13T19:04:44.707Z,39.83
2022-09-13T19:06:16.224Z,39.62
2022-09-13T19:07:48.240Z,39.79
2022-09-13T19:09:21.002Z,39.84
2022-09-13T19:10:52.724Z,39.96
2022-09-13T19:12:24.311Z,39.85
2022-09-13T19:13:56.011Z,39.94
2022-09-13T19:15:27.862Z,40.18
2022-09-13T19:17:01.305Z,40.08
2022-09-13T19:18:34.613Z,40.23
2022-09-13T19:20:06.597Z,40.32
2022-09-13T19:21:38.167Z,40.24
2022-09-13T19:23:09.695Z,40.45
2022-09-13T19:24:41.376Z,40.90
2022-09-13T19:26:14.199Z,40.84
2022-09-13T19:27:45.944Z,40.86
2022-09-13T19:29:17.947Z,40.78
2022-09-13T19:30:51.124Z,40.87
2022-09-13T19:32:23.091Z,41.14
2022-09-13T19:33:55.551Z,40.99
2022-09-13T19:35:36.552Z,40.94
2022-09-13T19:37:08.098Z,41.12
2022-09-13T19:38:39.899Z,40.95
2022-09-13T19:40:12.168Z,41.09
2022-09-13T19:41:44.045Z,41.11
2022-09-13T19:43:15.527Z,41.47
2022-09-13T19:44:47.223Z,41.75
2022-09-13T19:46:24.350Z,41.66
2022-09-13T19:49:49.939Z,41.66
2022-09-13T19:51:27.087Z,41.55
2022-09-13T19:52:58.737Z,41.72
2022-09-13T19:54:30.409Z,41.52
2022-09-13T19:56:03.089Z,41.70
2022-09-13T19:57:34.858Z,42.04
2022-09-13T19:59:07.608Z,41.83
2022-09-13T20:00:39.646Z,42.05
2022-09-13T20:02:11.359Z,42.02
2022-09-13T20:03:43.296Z,41.98
2022-09-13T20:05:15.686Z,42.09
2022-09-13T20:06:48.365Z,42.02
2022-09-13T20:08:23.428Z,42.03
2022-09-13T20:09:55.193Z,41.85
2022-09-13T20:11:28.537Z,41.94
2022-09-13T20:13:00.842Z,42.25
2022-09-13T20:14:34.081Z,42.25
2022-09-13T20:16:11.943Z,42.23
2022-09-13T20:17:44.032Z,42.89
2022-09-13T20:21:11.539Z,42.18
2022-09-13T20:22:43.198Z,42.21
2022-09-13T20:24:15.828Z,42.20
2022-09-13T20:25:47.373Z,42.57
2022-09-13T20:27:19.341Z,42.56
2022-09-13T20:28:51.787Z,42.67
2022-09-13T20:30:23.541Z,42.63
2022-09-13T20:31:55.945Z,42.71
2022-09-13T20:33:27.650Z,42.57
2022-09-13T20:34:59.480Z,42.80
2022-09-13T20:36:31.704Z,43.00
2022-09-13T20:38:11.737Z,42.81
2022-09-13T20:39:44.418Z,42.84
2022-09-13T20:41:17.367Z,43.05
2022-09-13T20:42:49.934Z,42.86
2022-09-13T20:44:21.549Z,42.85
2022-09-13T20:45:59.442Z,42.57
2022-09-13T20:47:31.249Z,42.53
2022-09-13T20:49:05.004Z,42.59
2022-09-13T20:50:37.301Z,42.78
2022-09-13T20:52:08.935Z,42.61
2022-09-13T20:53:40.482Z,42.59
2022-09-13T20:55:12.423Z,42.68
2022-09-13T20:56:44.077Z,42.88
2022-09-13T20:58:15.664Z,42.92
2022-09-13T20:59:47.169Z,43.04
2022-09-13T21:01:21.467Z,43.24
2022-09-13T21:02:53.345Z,42.91
2022-09-13T21:04:25.221Z,43.15
2022-09-13T21:05:57.351Z,43.35
2022-09-13T21:07:47.132Z,43.52
2022-09-13T21:09:18.763Z,43.27
2022-09-13T21:11:02.330Z,43.47
2022-09-13T21:12:33.862Z,43.43
2022-09-13T21:14:06.261Z,43.47
2022-09-13T21:15:38.784Z,43.47
2022-09-13T21:17:10.339Z,43.56
2022-09-13T21:18:42.846Z,43.29
2022-09-13T21:20:14.938Z,43.62
2022-09-13T21:21:46.509Z,43.72
2022-09-13T21:23:18.416Z,43.46
2022-09-13T21:24:50.048Z,43.82
2022-09-13T21:26:22.282Z,43.79
2022-09-13T21:27:53.924Z,43.71
2022-09-13T21:29:26.385Z,43.96
2022-09-13T21:30:58.423Z,43.91
2022-09-13T21:32:30.060Z,44.25
2022-09-13T21:34:05.851Z,44.11
2022-09-13T21:35:39.829Z,43.97
2022-09-13T21:37:11.423Z,44.11
2022-09-13T21:38:43.103Z,44.48
2022-09-13T21:40:15.291Z,44.46
2022-09-13T21:41:47.672Z,43.95
2022-09-13T21:43:19.718Z,44.09
2022-09-13T21:44:51.506Z,44.30
2022-09-13T21:46:24.028Z,44.04
2022-09-13T21:47:55.884Z,44.03
2022-09-13T21:49:27.843Z,44.22
2022-09-13T21:51:28.712Z,44.36
2022-09-13T21:53:00.414Z,44.18
2022-09-13T21:54:31.901Z,44.42
2022-09-13T21:56:06.976Z,44.26
2022-09-13T21:57:38.500Z,44.69
2022-09-13T21:59:16.928Z,44.43
2022-09-13T22:00:50.279Z,44.76
2022-09-13T22:02:21.968Z,44.79
2022-09-13T22:03:54.161Z,44.81
2022-09-13T22:05:25.788Z,44.82
2022-09-13T22:06:57.334Z,44.50
2022-09-13T22:08:38.789Z,44.36
2022-09-13T22:10:10.282Z,44.80
2022-09-13T22:11:44.151Z,44.28
2022-09-13T22:13:15.796Z,44.91
2022-09-13T22:14:48.644Z,44.57
2022-09-13T22:16:27.028Z,45.08
2022-09-13T22:17:58.653Z,44.77
2022-09-13T22:19:31.885Z,45.28
2022-09-13T22:21:06.699Z,44.64
2022-09-13T22:22:38.218Z,45.05
2022-09-13T22:24:10.233Z,44.60